createdAt,value
2022-08-02T00:00:33.712Z,77.25
2022-08-02T00:01:32.975Z,77.25
2022-08-02T00:02:33.224Z,77.35
2022-08-02T00:03:33.455Z,77.45
2022-08-02T00:04:33.702Z,77.55
2022-08-02T00:05:33.964Z,77.15
2022-08-02T00:06:34.189Z,77.51
2022-08-02T00:07:40.555Z,76.81
2022-08-02T00:08:35.638Z,76.61
2022-08-02T00:09:34.865Z,77.91
2022-08-02T00:10:35.116Z,76.71
2022-08-02T00:11:35.345Z,77.11
2022-08-02T00:12:35.590Z,77.21
2022-08-02T00:13:35.842Z,76.51
2022-08-02T00:14:36.064Z,76.61
2022-08-02T00:15:36.298Z,76.61
2022-08-02T00:16:37.880Z,77.01
2022-08-02T00:17:36.842Z,76.91
2022-08-02T00:18:37.050Z,76.91
2022-08-02T00:19:37.276Z,76.61
2022-08-02T00:20:37.505Z,77.01
2022-08-02T00:21:37.738Z,77.11
2022-08-02T00:22:37.985Z,76.51
2022-08-02T00:24:27.588Z,77.01
2022-08-02T00:24:39.518Z,77.01
2022-08-02T00:25:54.821Z,76.91
2022-08-02T00:26:40.024Z,76.41
2022-08-02T00:27:39.266Z,76.51
2022-08-02T00:28:39.490Z,76.51
2022-08-02T00:29:50.430Z,76.81
2022-08-02T00:30:41.006Z,76.01
2022-08-02T00:31:40.229Z,77.11
2022-08-02T00:32:40.467Z,75.91
2022-08-02T00:34:26.754Z,75.81
2022-08-02T00:34:41.983Z,75.10
2022-08-02T00:35:41.203Z,74.40
2022-08-02T00:36:41.415Z,73.40
2022-08-02T00:37:41.666Z,73.70
2022-08-02T00:38:41.892Z,72.80
2022-08-02T00:39:42.119Z,72.00
2022-08-02T00:40:42.344Z,72.70
2022-08-02T00:41:42.635Z,72.40
2022-08-02T00:42:42.905Z,72.40
2022-08-02T00:43:43.166Z,73.10
2022-08-02T00:44:43.388Z,72.13
2022-08-02T00:46:02.476Z,72.43
2022-08-02T00:46:44.905Z,73.44
2022-08-02T00:47:44.141Z,72.53
2022-08-02T00:48:44.373Z,72.83
2022-08-02T00:49:44.593Z,72.94
2022-08-02T00:50:44.822Z,72.33
2022-08-02T00:51:45.039Z,72.94
2022-08-02T00:52:45.278Z,72.83
2022-08-02T00:53:45.503Z,72.43
2022-08-02T00:54:45.734Z,73.24
2022-08-02T00:55:45.967Z,72.13
2022-08-02T00:56:49.736Z,72.24
2022-08-02T00:57:46.485Z,72.53
2022-08-02T00:58:46.712Z,72.13
2022-08-02T00:59:46.936Z,73.13
2022-08-02T01:00:47.175Z,72.24
2022-08-02T01:01:54.808Z,72.74
2022-08-02T01:02:48.703Z,72.33
2022-08-02T01:03:47.925Z,71.73
2022-08-02T01:04:48.151Z,71.83
2022-08-02T01:06:10.015Z,71.03
2022-08-02T01:06:49.571Z,71.83
2022-08-02T01:07:48.810Z,70.73
2022-08-02T01:08:49.041Z,70.93
2022-08-02T01:09:49.268Z,71.23
2022-08-02T01:10:49.492Z,71.33
2022-08-02T01:11:49.682Z,70.83
2022-08-02T01:12:49.942Z,71.33
2022-08-02T01:13:50.187Z,71.23
2022-08-02T01:14:50.413Z,71.83
2022-08-02T01:15:50.640Z,71.23
2022-08-02T01:16:50.872Z,71.43
2022-08-02T01:17:51.121Z,71.63
2022-08-02T01:18:51.303Z,72.24
2022-08-02T01:19:51.523Z,72.03
2022-08-02T01:20:51.746Z,71.63
2022-08-02T01:21:51.971Z,72.24
2022-08-02T01:23:07.606Z,71.93
2022-08-02T01:23:53.396Z,72.33
2022-08-02T01:24:52.632Z,72.03
2022-08-02T01:25:52.855Z,72.24
2022-08-02T01:26:53.085Z,71.83
2022-08-02T01:27:53.331Z,71.83
2022-08-02T01:28:53.557Z,72.03
2022-08-02T01:29:53.792Z,72.03
2022-08-02T01:30:54.021Z,72.03
2022-08-02T01:31:54.255Z,72.06
2022-08-02T01:32:54.499Z,72.56
2022-08-02T01:33:54.742Z,71.97
2022-08-02T01:34:54.979Z,71.86
2022-08-02T01:35:55.210Z,71.97
2022-08-02T01:36:55.452Z,71.47
2022-08-02T01:37:55.702Z,72.17
2022-08-02T01:38:55.935Z,71.97
2022-08-02T01:39:56.155Z,72.06
2022-08-02T01:40:56.388Z,71.77
2022-08-02T01:41:58.803Z,71.60
2022-08-02T01:42:58.056Z,71.80
2022-08-02T01:43:57.080Z,72.20
2022-08-02T01:44:57.311Z,72.00
2022-08-02T01:45:57.542Z,72.10
2022-08-02T01:46:57.779Z,71.90
2022-08-02T01:47:58.018Z,71.90
2022-08-02T01:48:58.319Z,72.24
2022-08-02T01:49:58.439Z,72.33
2022-08-02T01:50:58.660Z,73.44
2022-08-02T01:51:58.909Z,72.64
2022-08-02T01:52:59.164Z,72.53
2022-08-02T01:53:59.384Z,72.74
2022-08-02T01:54:59.620Z,72.13
2022-08-02T01:55:59.845Z,72.44
2022-08-02T01:57:00.094Z,72.74
2022-08-02T01:58:00.321Z,72.33
2022-08-02T01:59:00.559Z,72.24
2022-08-02T02:00:01.633Z,71.94
2022-08-02T02:01:01.039Z,73.14
2022-08-02T02:02:01.212Z,72.33
2022-08-02T02:03:01.449Z,72.13
2022-08-02T02:04:01.707Z,72.53
2022-08-02T02:05:01.936Z,72.53
2022-08-02T02:06:02.169Z,72.53
2022-08-02T02:07:02.397Z,72.33
2022-08-02T02:08:02.657Z,72.44
2022-08-02T02:09:02.878Z,72.94
2022-08-02T02:10:03.121Z,72.53
2022-08-02T02:12:05.849Z,72.33
2022-08-02T02:12:12.895Z,72.17
2022-08-02T02:13:04.951Z,72.37
2022-08-02T02:14:04.180Z,72.37
2022-08-02T02:15:04.410Z,73.38
2022-08-02T02:16:04.646Z,72.57
2022-08-02T02:17:04.883Z,72.37
2022-08-02T02:18:12.317Z,72.47
2022-08-02T02:19:06.326Z,72.77
2022-08-02T02:20:05.566Z,73.07
2022-08-02T02:21:05.798Z,73.38
2022-08-02T02:22:06.033Z,73.24
2022-08-02T02:23:06.255Z,73.04
2022-08-02T02:24:09.064Z,73.14
2022-08-02T02:25:07.821Z,73.64
2022-08-02T02:26:07.081Z,72.94
2022-08-02T02:27:07.328Z,72.24
2022-08-02T02:28:07.602Z,72.33
2022-08-02T02:29:07.837Z,72.24
2022-08-02T02:30:08.079Z,71.83
2022-08-02T02:31:08.330Z,71.90
2022-08-02T02:32:08.972Z,71.94
2022-08-02T02:33:08.776Z,71.90
2022-08-02T02:34:09.013Z,71.40
2022-08-02T02:35:09.247Z,71.30
2022-08-02T02:36:09.482Z,71.20
2022-08-02T02:37:11.115Z,71.60
2022-08-02T02:38:10.027Z,71.00
2022-08-02T02:39:13.606Z,71.09
2022-08-02T02:40:10.526Z,71.09
2022-08-02T02:41:10.755Z,70.79
2022-08-02T02:42:11.213Z,71.00
2022-08-02T02:43:11.275Z,71.60
2022-08-02T02:44:11.514Z,70.50
2022-08-02T02:45:11.747Z,70.19
2022-08-02T02:46:11.990Z,69.89
2022-08-02T02:47:12.221Z,69.29
2022-08-02T02:48:12.477Z,69.29
2022-08-02T02:49:12.792Z,69.39
2022-08-02T02:50:12.914Z,68.79
2022-08-02T02:51:13.806Z,69.49
2022-08-02T02:52:13.738Z,69.19
2022-08-02T02:53:13.561Z,69.09
2022-08-02T02:54:32.083Z,68.49
2022-08-02T02:55:14.984Z,69.09
2022-08-02T02:56:14.213Z,67.58
2022-08-02T02:57:14.450Z,68.08
2022-08-02T02:58:14.707Z,67.28
2022-08-02T02:59:14.942Z,67.78
2022-08-02T03:00:15.179Z,66.78
2022-08-02T03:01:15.493Z,66.78
2022-08-02T03:02:15.636Z,66.88
2022-08-02T03:03:15.890Z,67.08
2022-08-02T03:04:16.149Z,66.78
2022-08-02T03:05:16.381Z,65.47
2022-08-02T03:06:16.638Z,65.47
2022-08-02T03:07:16.888Z,65.91
2022-08-02T03:08:17.125Z,64.90
2022-08-02T03:09:17.395Z,65.60
2022-08-02T03:10:17.643Z,65.80
2022-08-02T03:11:17.883Z,66.41
2022-08-02T03:12:19.972Z,66.20
2022-08-02T03:13:18.375Z,65.50
2022-08-02T03:14:18.612Z,65.30
2022-08-02T03:15:18.848Z,65.91
2022-08-02T03:16:19.091Z,65.70
2022-08-02T03:17:19.329Z,65.00
2022-08-02T03:18:19.594Z,65.00
2022-08-02T03:19:19.820Z,65.41
2022-08-02T03:20:20.056Z,65.53
2022-08-02T03:21:20.283Z,65.33
2022-08-02T03:22:20.505Z,65.64
2022-08-02T03:23:20.748Z,65.73
2022-08-02T03:24:27.825Z,65.64
2022-08-02T03:25:22.195Z,66.03
2022-08-02T03:26:31.165Z,66.34
2022-08-02T03:27:21.714Z,66.03
2022-08-02T03:28:21.982Z,65.84
2022-08-02T03:29:24.864Z,65.84
2022-08-02T03:30:22.417Z,65.77
2022-08-02T03:31:22.654Z,66.47
2022-08-02T03:32:22.902Z,65.36
2022-08-02T03:33:23.169Z,66.27
2022-08-02T03:34:23.407Z,66.17
2022-08-02T03:35:24.517Z,65.97
2022-08-02T03:36:23.864Z,66.17
2022-08-02T03:37:24.094Z,65.97
2022-08-02T03:38:24.344Z,65.39
2022-08-02T03:39:24.580Z,66.20
2022-08-02T03:40:24.822Z,66.20
2022-08-02T03:41:25.052Z,66.40
2022-08-02T03:42:25.293Z,65.70
2022-08-02T03:43:28.844Z,66.10
2022-08-02T03:44:25.842Z,66.80
2022-08-02T03:45:26.102Z,67.21
2022-08-02T03:46:26.341Z,67.81
2022-08-02T03:47:26.589Z,68.11
2022-08-02T03:48:31.852Z,68.31
2022-08-02T03:49:28.147Z,70.12
2022-08-02T03:50:27.274Z,71.03
2022-08-02T03:51:27.510Z,71.43
2022-08-02T03:52:27.746Z,72.54
2022-08-02T03:53:28.043Z,72.64
2022-08-02T03:54:34.624Z,73.55
2022-08-02T03:55:29.482Z,73.95
2022-08-02T03:56:28.743Z,74.35
2022-08-02T03:57:28.979Z,73.95
2022-08-02T03:58:29.253Z,74.35
2022-08-02T03:59:32.614Z,74.95
2022-08-02T04:00:29.703Z,75.15
2022-08-02T04:01:29.996Z,74.85
2022-08-02T04:02:30.219Z,75.26
2022-08-02T04:03:30.471Z,74.85
2022-08-02T04:04:30.724Z,75.22
2022-08-02T04:05:30.970Z,74.92
2022-08-02T04:06:31.215Z,75.02
2022-08-02T04:08:15.372Z,75.12
2022-08-02T04:08:35.781Z,75.42
2022-08-02T04:09:31.972Z,75.42
2022-08-02T04:10:32.245Z,75.02
2022-08-02T04:11:32.493Z,75.62
2022-08-02T04:12:32.744Z,75.52
2022-08-02T04:13:35.727Z,75.09
2022-08-02T04:14:35.591Z,74.88
2022-08-02T04:15:33.458Z,74.58
2022-08-02T04:16:33.692Z,74.58
2022-08-02T04:17:33.962Z,74.38
2022-08-02T04:18:34.235Z,74.08
2022-08-02T04:19:34.510Z,74.48
2022-08-02T04:20:34.751Z,74.48
2022-08-02T04:21:48.446Z,74.41
2022-08-02T04:22:36.180Z,75.02
2022-08-02T04:23:35.435Z,75.22
2022-08-02T04:24:35.650Z,75.02
2022-08-02T04:25:40.330Z,75.12
2022-08-02T04:26:36.070Z,74.82
2022-08-02T04:27:50.905Z,75.02
2022-08-02T04:28:37.472Z,74.48
2022-08-02T04:29:36.689Z,73.88
2022-08-02T04:30:36.931Z,74.41
2022-08-02T04:31:37.168Z,74.48
2022-08-02T04:32:37.400Z,74.08
2022-08-02T04:33:37.652Z,74.08
2022-08-02T04:34:37.890Z,74.18
2022-08-02T04:35:38.130Z,74.58
2022-08-02T04:36:38.369Z,73.47
2022-08-02T04:37:38.598Z,73.18
2022-08-02T04:38:39.921Z,72.87
2022-08-02T04:39:39.159Z,72.47
2022-08-02T04:40:39.406Z,72.47
2022-08-02T04:41:43.617Z,71.87
2022-08-02T04:42:39.830Z,72.27
2022-08-02T04:43:40.068Z,70.16
2022-08-02T04:44:40.309Z,71.47
2022-08-02T04:45:40.569Z,70.96
2022-08-02T04:46:40.807Z,70.66
2022-08-02T04:47:54.373Z,71.16
2022-08-02T04:48:42.346Z,70.86
2022-08-02T04:49:41.620Z,70.56
2022-08-02T04:50:41.846Z,71.77
2022-08-02T04:51:42.080Z,70.83
2022-08-02T04:52:45.805Z,71.67
2022-08-02T04:53:42.555Z,71.56
2022-08-02T04:54:42.787Z,71.73
2022-08-02T04:55:43.017Z,71.97
2022-08-02T04:56:43.255Z,72.03
2022-08-02T04:57:52.654Z,72.24
2022-08-02T04:58:44.799Z,72.13
2022-08-02T04:59:44.030Z,72.03
2022-08-02T05:00:44.280Z,72.07
2022-08-02T05:01:44.503Z,72.57
2022-08-02T05:02:44.739Z,72.67
2022-08-02T05:03:47.459Z,71.87
2022-08-02T05:04:45.260Z,72.17
2022-08-02T05:05:45.495Z,71.67
2022-08-02T05:06:45.726Z,71.97
2022-08-02T05:07:45.954Z,72.03
2022-08-02T05:08:46.205Z,72.03
2022-08-02T05:09:47.384Z,70.73
2022-08-02T05:10:46.611Z,71.13
2022-08-02T05:11:54.909Z,70.73
2022-08-02T05:12:48.143Z,70.79
2022-08-02T05:13:57.451Z,71.00
2022-08-02T05:14:48.576Z,71.20
2022-08-02T05:15:47.791Z,70.79
2022-08-02T05:16:48.031Z,71.40
2022-08-02T05:17:48.765Z,71.00
2022-08-02T05:18:48.458Z,70.79
2022-08-02T05:19:48.722Z,71.00
2022-08-02T05:20:48.957Z,71.20
2022-08-02T05:21:49.180Z,71.20
2022-08-02T05:22:49.421Z,71.40
2022-08-02T05:23:49.656Z,70.50
2022-08-02T05:24:49.896Z,71.00
2022-08-02T05:25:50.142Z,70.16
2022-08-02T05:26:50.375Z,68.95
2022-08-02T05:27:50.604Z,69.66
2022-08-02T05:28:50.851Z,70.86
2022-08-02T05:29:53.661Z,69.85
2022-08-02T05:30:52.272Z,67.65
2022-08-02T05:31:51.505Z,68.45
2022-08-02T05:32:51.737Z,68.45
2022-08-02T05:33:51.977Z,67.35
2022-08-02T05:34:52.215Z,67.55
2022-08-02T05:35:52.453Z,68.08
2022-08-02T05:36:52.686Z,69.09
2022-08-02T05:37:52.914Z,68.18
2022-08-02T05:38:53.186Z,68.79
2022-08-02T05:39:55.340Z,69.79
2022-08-02T05:40:55.042Z,69.85
2022-08-02T05:41:53.853Z,68.85
2022-08-02T05:42:54.090Z,70.46
2022-08-02T05:43:54.332Z,68.62
2022-08-02T05:44:54.555Z,68.22
2022-08-02T05:45:54.791Z,67.11
2022-08-02T05:46:55.019Z,67.02
2022-08-02T05:47:55.247Z,67.82
2022-08-02T05:48:55.568Z,68.49
2022-08-02T05:49:55.676Z,68.59
2022-08-02T05:50:55.924Z,67.25
2022-08-02T05:51:56.147Z,66.85
2022-08-02T05:52:56.372Z,65.95
2022-08-02T05:53:59.188Z,66.65
2022-08-02T05:54:56.858Z,66.52
2022-08-02T05:55:57.085Z,66.32
2022-08-02T05:56:57.323Z,67.62
2022-08-02T05:57:57.554Z,66.22
2022-08-02T05:58:57.801Z,66.12
2022-08-02T05:59:58.020Z,67.19
2022-08-02T06:00:58.253Z,65.89
2022-08-02T06:01:58.538Z,64.98
2022-08-02T06:02:58.694Z,65.39
2022-08-02T06:03:58.969Z,66.99
2022-08-02T06:04:59.178Z,65.09
2022-08-02T06:05:59.405Z,63.65
2022-08-02T06:06:59.642Z,64.48
2022-08-02T06:07:59.896Z,64.59
2022-08-02T06:09:00.132Z,64.28
2022-08-02T06:10:00.365Z,62.85
2022-08-02T06:11:00.589Z,62.85
2022-08-02T06:12:02.839Z,63.65
2022-08-02T06:13:01.054Z,63.25
2022-08-02T06:14:01.292Z,62.32
2022-08-02T06:15:01.512Z,61.92
2022-08-02T06:16:01.739Z,61.02
2022-08-02T06:17:01.965Z,61.35
2022-08-02T06:18:02.141Z,61.12
2022-08-02T06:19:02.382Z,62.25
2022-08-02T06:20:02.603Z,62.45
2022-08-02T06:22:31.689Z,62.42
2022-08-02T06:22:32.181Z,62.22
2022-08-02T06:23:04.182Z,61.82
2022-08-02T06:24:03.407Z,61.62
2022-08-02T06:25:03.625Z,62.19
2022-08-02T06:26:03.844Z,62.70
2022-08-02T06:27:04.066Z,61.49
2022-08-02T06:28:04.293Z,59.89
2022-08-02T06:29:05.482Z,60.49
2022-08-02T06:30:04.696Z,59.97
2022-08-02T06:31:04.910Z,59.23
2022-08-02T06:32:05.122Z,59.04
2022-08-02T06:33:05.381Z,57.54
2022-08-02T06:34:05.614Z,59.51
2022-08-02T06:35:05.827Z,57.41
2022-08-02T06:36:06.042Z,58.18
2022-08-02T06:37:06.263Z,57.09
2022-08-02T06:38:06.482Z,56.98
2022-08-02T06:39:06.707Z,56.59
2022-08-02T06:40:06.944Z,56.61
2022-08-02T06:41:07.172Z,57.44
2022-08-02T06:42:07.333Z,56.71
2022-08-02T06:43:07.539Z,57.18
2022-08-02T06:44:42.029Z,57.09
2022-08-02T06:45:08.944Z,55.69
2022-08-02T06:46:57.193Z,56.96
2022-08-02T06:47:12.475Z,55.86
2022-08-02T06:48:08.543Z,55.63
2022-08-02T06:49:08.871Z,55.43
2022-08-02T06:50:08.980Z,55.01
2022-08-02T06:51:09.182Z,54.19
2022-08-02T06:52:09.644Z,53.46
2022-08-02T06:53:09.571Z,52.27
2022-08-02T06:54:09.790Z,52.04
2022-08-02T06:55:09.989Z,52.94
2022-08-02T06:56:10.192Z,52.04
2022-08-02T06:57:10.459Z,51.92
2022-08-02T06:58:10.666Z,51.42
2022-08-02T06:59:10.892Z,51.12
2022-08-02T07:00:11.095Z,51.42
2022-08-02T07:01:11.358Z,51.60
2022-08-02T07:02:11.723Z,51.28
2022-08-02T07:03:11.607Z,50.43
2022-08-02T07:04:11.919Z,49.32
2022-08-02T07:05:11.976Z,49.02
2022-08-02T07:06:12.181Z,48.90
2022-08-02T07:07:12.383Z,47.78
2022-08-02T07:08:12.587Z,49.05
2022-08-02T07:09:21.513Z,49.05
2022-08-02T07:10:13.946Z,47.75
2022-08-02T07:11:13.131Z,47.44
2022-08-02T07:12:13.763Z,47.24
2022-08-02T07:13:13.512Z,46.37
2022-08-02T07:14:13.730Z,47.66
2022-08-02T07:15:13.925Z,47.36
2022-08-02T07:16:14.123Z,47.46
2022-08-02T07:17:14.329Z,48.13
2022-08-02T07:18:14.527Z,47.24
2022-08-02T07:19:14.746Z,46.25
2022-08-02T07:20:14.949Z,46.77
2022-08-02T07:21:15.142Z,47.21
2022-08-02T07:22:15.772Z,47.28
2022-08-02T07:23:15.509Z,46.97
2022-08-02T07:24:15.723Z,47.38
2022-08-02T07:25:15.908Z,48.77
2022-08-02T07:26:16.107Z,48.47
2022-08-02T07:27:16.294Z,47.46
2022-08-02T07:28:24.034Z,47.46
2022-08-02T07:29:17.653Z,45.87
2022-08-02T07:30:16.843Z,46.35
2022-08-02T07:31:17.044Z,45.71
2022-08-02T07:32:17.246Z,45.57
2022-08-02T07:33:39.027Z,45.03
2022-08-02T07:34:18.592Z,44.02
2022-08-02T07:35:19.281Z,42.61
2022-08-02T07:36:22.855Z,42.44
2022-08-02T07:37:34.911Z,42.54
2022-08-02T07:38:19.191Z,42.60
2022-08-02T07:39:18.380Z,42.00
2022-08-02T07:40:20.020Z,42.64
2022-08-02T07:41:18.757Z,42.91
2022-08-02T07:42:18.940Z,42.22
2022-08-02T07:43:19.112Z,41.75
2022-08-02T07:44:19.295Z,41.53
2022-08-02T07:45:19.490Z,42.58
2022-08-02T07:46:19.654Z,40.61
2022-08-02T07:47:19.834Z,40.01
2022-08-02T07:48:20.005Z,40.15
2022-08-02T07:49:20.215Z,41.28
2022-08-02T07:50:20.384Z,42.19
2022-08-02T07:51:20.554Z,42.64
2022-08-02T07:52:20.732Z,42.02
2022-08-02T07:53:20.919Z,41.09
2022-08-02T07:54:22.033Z,40.31
2022-08-02T07:55:21.212Z,41.12
2022-08-02T07:56:21.385Z,44.07
2022-08-02T07:57:21.546Z,45.08
2022-08-02T07:58:21.729Z,43.77
2022-08-02T07:59:21.917Z,44.35
2022-08-02T08:00:22.106Z,44.01
2022-08-02T08:01:22.314Z,43.06
2022-08-02T08:02:22.384Z,43.65
2022-08-02T08:03:22.558Z,43.63
2022-08-02T08:04:22.719Z,44.10
2022-08-02T08:05:22.903Z,42.64
2022-08-02T08:06:28.747Z,43.63
2022-08-02T08:07:24.243Z,43.51
2022-08-02T08:08:23.403Z,42.19
2022-08-02T08:09:23.570Z,41.53
2022-08-02T08:10:23.745Z,41.00
2022-08-02T08:11:23.906Z,40.19
2022-08-02T08:12:24.068Z,40.27
2022-08-02T08:13:24.226Z,39.97
2022-08-02T08:14:24.410Z,41.08
2022-08-02T08:15:24.577Z,40.31
2022-08-02T08:16:24.733Z,40.80
2022-08-02T08:17:24.887Z,40.29
2022-08-02T08:18:25.049Z,40.08
2022-08-02T08:19:50.466Z,40.15
2022-08-02T08:20:26.309Z,42.16
2022-08-02T08:21:25.450Z,42.14
2022-08-02T08:22:25.617Z,41.59
2022-08-02T08:23:25.745Z,42.78
2022-08-02T08:24:25.907Z,43.19
2022-08-02T08:25:27.295Z,42.66
2022-08-02T08:26:26.148Z,42.72
2022-08-02T08:27:26.285Z,41.59
2022-08-02T08:28:26.426Z,42.36
2022-08-02T08:29:26.552Z,42.62
2022-08-02T08:30:26.696Z,44.54
2022-08-02T08:31:26.850Z,43.53
2022-08-02T08:32:27.009Z,43.41
2022-08-02T08:33:27.147Z,44.10
2022-08-02T08:34:27.298Z,43.27
2022-08-02T08:35:27.458Z,42.50
2022-08-02T08:36:27.607Z,42.64
2022-08-02T08:37:27.771Z,41.24
2022-08-02T08:38:28.582Z,40.96
2022-08-02T08:39:28.067Z,42.64
2022-08-02T08:40:28.216Z,41.65
2022-08-02T08:41:30.061Z,40.96
2022-08-02T08:42:28.533Z,40.94
2022-08-02T08:43:28.673Z,42.48
2022-08-02T08:44:28.807Z,42.29
2022-08-02T08:45:28.937Z,42.70
2022-08-02T08:46:29.095Z,43.31
2022-08-02T08:47:33.413Z,43.85
2022-08-02T08:48:31.283Z,44.64
2022-08-02T08:49:29.540Z,43.97
2022-08-02T08:50:29.607Z,44.46
2022-08-02T08:51:29.748Z,44.84
2022-08-02T08:52:29.904Z,43.88
2022-08-02T08:53:36.650Z,42.93
2022-08-02T08:54:31.105Z,42.60
2022-08-02T08:55:30.227Z,42.44
2022-08-02T08:56:30.369Z,41.63
2022-08-02T08:57:30.499Z,41.81
2022-08-02T08:58:30.621Z,41.49
2022-08-02T08:59:30.752Z,41.39
2022-08-02T09:00:31.819Z,40.58
2022-08-02T09:01:49.672Z,40.78
2022-08-02T09:02:32.174Z,40.86
2022-08-02T09:03:33.823Z,40.78
2022-08-02T09:04:31.154Z,40.47
2022-08-02T09:05:31.270Z,39.76
2022-08-02T09:06:31.408Z,40.27
2022-08-02T09:07:31.521Z,43.03
2022-08-02T09:08:31.638Z,40.47
2022-08-02T09:09:31.750Z,40.37
2022-08-02T09:10:31.857Z,41.90
2022-08-02T09:11:31.962Z,38.76
2022-08-02T09:12:32.076Z,39.64
2022-08-02T09:13:45.063Z,41.25
2022-08-02T09:14:33.243Z,42.08
2022-08-02T09:15:32.329Z,42.58
2022-08-02T09:16:32.462Z,42.97
2022-08-02T09:17:32.571Z,43.43
2022-08-02T09:18:32.680Z,42.40
2022-08-02T09:19:32.783Z,40.25
2022-08-02T09:20:32.884Z,41.16
2022-08-02T09:21:33.008Z,41.33
2022-08-02T09:22:33.107Z,40.92
2022-08-02T09:23:33.203Z,40.21
2022-08-02T09:24:33.319Z,40.61
2022-08-02T09:25:33.400Z,40.31
2022-08-02T09:26:42.237Z,40.43
2022-08-02T09:27:33.534Z,40.94
2022-08-02T09:28:33.633Z,41.73
2022-08-02T09:29:38.261Z,40.72
2022-08-02T09:30:34.852Z,42.32
2022-08-02T09:31:33.971Z,41.63
2022-08-02T09:32:34.072Z,40.33
2022-08-02T09:33:34.159Z,40.21
2022-08-02T09:34:34.256Z,41.08
2022-08-02T09:36:07.236Z,41.33
2022-08-02T09:36:35.408Z,40.35
2022-08-02T09:37:34.497Z,39.15
2022-08-02T09:38:34.589Z,39.64
2022-08-02T09:39:34.675Z,38.71
2022-08-02T09:40:35.707Z,39.40
2022-08-02T09:41:34.823Z,40.78
2022-08-02T09:42:34.919Z,40.37
2022-08-02T09:43:34.999Z,39.92
2022-08-02T09:44:35.079Z,40.13
2022-08-02T09:45:35.169Z,41.04
2022-08-02T09:46:35.270Z,42.58
2022-08-02T09:47:37.330Z,42.50
2022-08-02T09:48:35.456Z,42.19
2022-08-02T09:49:35.568Z,42.82
2022-08-02T09:50:35.685Z,40.72
2022-08-02T09:51:35.792Z,40.62
2022-08-02T09:52:43.104Z,40.92
2022-08-02T09:53:36.927Z,41.24
2022-08-02T09:54:36.002Z,41.61
2022-08-02T09:55:36.088Z,40.98
2022-08-02T09:56:36.197Z,40.74
2022-08-02T09:57:36.282Z,38.97
2022-08-02T09:58:36.354Z,40.08
2022-08-02T09:59:36.436Z,40.82
2022-08-02T10:00:51.777Z,38.93
2022-08-02T10:01:39.037Z,38.32
2022-08-02T10:02:36.684Z,38.66
2022-08-02T10:03:37.375Z,39.47
2022-08-02T10:04:53.602Z,39.05
2022-08-02T10:05:42.782Z,39.94
2022-08-02T10:06:37.761Z,38.85
2022-08-02T10:07:36.839Z,39.05
2022-08-02T10:08:36.966Z,38.52
2022-08-02T10:09:41.511Z,38.23
2022-08-02T10:10:37.945Z,37.15
2022-08-02T10:11:37.010Z,38.36
2022-08-02T10:12:37.101Z,39.25
2022-08-02T10:13:37.763Z,39.64
2022-08-02T10:14:37.294Z,39.17
2022-08-02T10:15:37.347Z,39.26
2022-08-02T10:16:38.373Z,40.00
2022-08-02T10:17:37.465Z,40.69
2022-08-02T10:18:40.009Z,40.98
2022-08-02T10:19:59.847Z,42.18
2022-08-02T10:20:38.649Z,41.91
2022-08-02T10:21:37.733Z,42.50
2022-08-02T10:22:37.852Z,41.53
2022-08-02T10:23:37.955Z,42.32
2022-08-02T10:24:38.058Z,42.42
2022-08-02T10:25:38.159Z,41.83
2022-08-02T10:26:38.270Z,40.62
2022-08-02T10:28:03.750Z,41.22
2022-08-02T10:28:39.455Z,42.61
2022-08-02T10:29:53.436Z,41.33
2022-08-02T10:30:39.621Z,42.38
2022-08-02T10:31:38.737Z,42.26
2022-08-02T10:32:38.857Z,41.95
2022-08-02T10:33:38.973Z,41.53
2022-08-02T10:34:39.074Z,42.61
2022-08-02T10:35:39.167Z,40.92
2022-08-02T10:36:39.272Z,40.39
2022-08-02T10:37:39.404Z,40.76
2022-08-02T10:38:39.516Z,40.00
2022-08-02T10:39:39.623Z,40.19
2022-08-02T10:40:39.729Z,40.01
2022-08-02T10:41:39.843Z,42.26
2022-08-02T10:42:39.922Z,42.97
2022-08-02T10:43:40.037Z,42.76
2022-08-02T10:44:40.155Z,41.53
2022-08-02T10:45:40.219Z,40.88
2022-08-02T10:46:40.327Z,39.95
2022-08-02T10:47:40.449Z,39.17
2022-08-02T10:48:40.590Z,39.39
2022-08-02T10:49:40.976Z,39.60
2022-08-02T10:50:40.829Z,39.68
2022-08-02T10:51:40.947Z,39.47
2022-08-02T10:52:41.067Z,39.18
2022-08-02T10:53:41.190Z,39.44
2022-08-02T10:54:41.301Z,38.93
2022-08-02T10:55:41.422Z,39.27
2022-08-02T10:56:41.513Z,37.07
2022-08-02T10:57:41.627Z,37.11
2022-08-02T10:58:42.649Z,37.03
2022-08-02T10:59:41.726Z,37.63
2022-08-02T11:00:41.865Z,38.01
2022-08-02T11:01:42.009Z,37.58
2022-08-02T11:02:42.000Z,37.05
2022-08-02T11:03:42.076Z,35.85
2022-08-02T11:04:42.169Z,35.53
2022-08-02T11:05:43.840Z,34.64
2022-08-02T11:06:42.310Z,34.16
2022-08-02T11:07:42.414Z,34.70
2022-08-02T11:08:43.444Z,35.62
2022-08-02T11:09:42.513Z,36.70
2022-08-02T11:10:42.586Z,38.84
2022-08-02T11:11:54.035Z,37.43
2022-08-02T11:12:43.687Z,35.08
2022-08-02T11:13:42.772Z,35.91
2022-08-02T11:14:42.798Z,35.33
2022-08-02T11:15:42.879Z,36.11
2022-08-02T11:16:42.948Z,36.63
2022-08-02T11:17:43.009Z,36.46
2022-08-02T11:18:43.068Z,37.03
2022-08-02T11:19:43.146Z,36.13
2022-08-02T11:20:43.225Z,36.13
2022-08-02T11:21:47.517Z,36.22
2022-08-02T11:22:43.346Z,35.34
2022-08-02T11:23:44.754Z,38.07
2022-08-02T11:24:43.481Z,35.86
2022-08-02T11:26:03.315Z,34.49
2022-08-02T11:26:44.593Z,34.51
2022-08-02T11:27:43.668Z,35.10
2022-08-02T11:28:43.760Z,33.89
2022-08-02T11:29:43.828Z,35.63
2022-08-02T11:30:43.964Z,35.13
2022-08-02T11:31:44.039Z,34.62
2022-08-02T11:32:44.122Z,34.72
2022-08-02T11:33:44.221Z,35.16
2022-08-02T11:34:44.309Z,32.31
2022-08-02T11:35:44.393Z,32.53
2022-08-02T11:36:44.413Z,32.43
2022-08-02T11:37:44.496Z,33.23
2022-08-02T11:38:44.570Z,32.76
2022-08-02T11:39:44.640Z,32.86
2022-08-02T11:40:44.709Z,34.23
2022-08-02T11:41:46.668Z,33.84
2022-08-02T11:42:44.851Z,34.42
2022-08-02T11:43:44.945Z,33.26
2022-08-02T11:44:45.013Z,33.50
2022-08-02T11:45:45.092Z,34.11
2022-08-02T11:46:45.157Z,35.59
2022-08-02T11:47:45.270Z,36.30
2022-08-02T11:48:45.385Z,36.67
2022-08-02T11:49:45.545Z,35.49
2022-08-02T11:50:45.533Z,36.47
2022-08-02T11:51:45.639Z,35.83
2022-08-02T11:52:45.732Z,34.20
2022-08-02T11:53:45.832Z,32.61
2022-08-02T11:54:45.915Z,34.10
2022-08-02T11:55:46.016Z,33.41
2022-08-02T11:56:46.121Z,33.70
2022-08-02T11:58:03.142Z,34.56
2022-08-02T11:58:47.267Z,34.93
2022-08-02T11:59:46.371Z,34.54
2022-08-02T12:00:46.472Z,35.87
2022-08-02T12:01:46.662Z,35.03
2022-08-02T12:02:46.702Z,37.07
2022-08-02T12:03:46.872Z,34.45
2022-08-02T12:04:46.858Z,32.29
2022-08-02T12:06:04.600Z,33.74
2022-08-02T12:06:48.057Z,32.95
2022-08-02T12:07:47.161Z,32.68
2022-08-02T12:08:51.969Z,32.70
2022-08-02T12:09:48.336Z,33.77
2022-08-02T12:10:47.432Z,32.60
2022-08-02T12:11:47.543Z,31.99
2022-08-02T12:12:47.637Z,31.99
2022-08-02T12:13:56.436Z,33.77
2022-08-02T12:14:48.815Z,33.05
2022-08-02T12:15:47.911Z,34.08
2022-08-02T12:16:48.003Z,30.84
2022-08-02T12:17:48.123Z,31.54
2022-08-02T12:18:48.214Z,32.27
2022-08-02T12:19:48.320Z,32.46
2022-08-02T12:20:48.437Z,32.19
2022-08-02T12:21:48.532Z,32.56
2022-08-02T12:22:48.637Z,32.17
2022-08-02T12:24:00.351Z,33.01
2022-08-02T12:24:49.809Z,32.67
2022-08-02T12:25:48.901Z,31.64
2022-08-02T12:26:49.006Z,32.68
2022-08-02T12:27:50.717Z,29.93
2022-08-02T12:28:49.216Z,29.16
2022-08-02T12:29:57.653Z,30.02
2022-08-02T12:30:50.381Z,29.74
2022-08-02T12:31:55.902Z,29.30
2022-08-02T12:32:50.526Z,29.52
2022-08-02T12:33:49.607Z,30.10
2022-08-02T12:34:49.708Z,30.42
2022-08-02T12:35:49.800Z,30.84
2022-08-02T12:36:49.912Z,30.54
2022-08-02T12:37:50.021Z,30.15
2022-08-02T12:38:50.126Z,30.24
2022-08-02T12:39:50.226Z,30.55
2022-08-02T12:40:50.322Z,31.41
2022-08-02T12:41:54.689Z,30.54
2022-08-02T12:42:50.495Z,30.81
2022-08-02T12:43:50.598Z,30.22
2022-08-02T12:44:50.705Z,30.05
2022-08-02T12:45:50.811Z,31.45
2022-08-02T12:46:50.923Z,31.16
2022-08-02T12:47:51.041Z,31.52
2022-08-02T12:49:15.874Z,32.71
2022-08-02T12:49:52.350Z,33.00
2022-08-02T12:50:51.337Z,33.39
2022-08-02T12:51:57.593Z,32.60
2022-08-02T12:52:52.526Z,32.99
2022-08-02T12:53:59.807Z,32.46
2022-08-02T12:54:52.698Z,31.18